• Join FlightAware (Why Join?)
  • Login
  • US Flag 
11:52AM EST


 

Airport Tracker/Info


-or-


 

Live Flight TrackerFlight Track Log ✈ FLG3861 ✈ 14-Nov-2013 ✈ KDTW - KBGM

Flight Track Log - Related Links

Times and Time Zones

All times are in EST time to prevent confusion due to time zone crossing. See the FLG3861 flight status page for this flight to view local times or setup timezone preferences in your user account.

Time Position Orientation Groundspeed Altitude Reporting Facility
EST Latitude Longitude Course Direction KTS MPH feet Rate Location/Type
09:55PM 42.2050 -83.3528 164° South 156 180 1,200  Level Cleveland Center
09:56PM 42.1500 -83.3317 164° South 191 220 3,900 2,160 Climbing Cleveland Center
09:56PM 42.1444 -83.3247 137° Southeast 236 272 4,100 2,700 Climbing Cleveland Center
09:57PM 42.0936 -83.2500 133° Southeast 275 316 6,700 2,820 Climbing Cleveland Center
09:58PM 42.1028 -83.1583 82° East 326 375 9,000 2,520 Climbing Cleveland Center
09:58PM 42.1056 -83.1450 74° East 314 361 9,300 2,040 Climbing Cleveland Center
09:59PM 42.1433 -83.0372 65° Northeast 334 384 11,300 1,980 Climbing Cleveland Center
09:59PM 42.1425 -83.0331 105° East 329 379 11,400 1,560 Climbing Cleveland Center
10:00PM 42.1917 -82.9111 61° Northeast 375 432 13,100 1,980 Climbing Cleveland Center
10:01PM 42.2511 -82.7547 63° Northeast 392 451 15,500 1,860 Climbing Cleveland Center
10:02PM 42.3039 -82.6214 62° Northeast 403 464 17,000 1,320 Climbing Cleveland Center
10:03PM 42.3461 -82.4756 69° East 433 498 18,300 1,200 Climbing Cleveland Center
10:04PM 42.3481 -82.3158 89° East 428 493 19,500 780 Climbing Cleveland Center
10:05PM 42.3489 -82.1481 90° East 444 511 20,000 480 Climbing Cleveland Center
10:06PM 42.3489 -81.9700 90° East 465 535 20,500 480 Climbing Cleveland Center
10:07PM 42.3492 -81.7869 90° East 478 550 21,000 480 Climbing Cleveland Center
10:08PM 42.3500 -81.5994 90° East 490 564 21,500 480 Climbing Cleveland Center
10:09PM 42.3492 -81.4114 90° East 495 570 22,000 480 Climbing Cleveland Center
10:10PM 42.3492 -81.1894 90° East 501 577 22,600 480 Climbing Cleveland Center
10:11PM 42.3478 -80.9986 90° East 502 578 23,100 600 Climbing Cleveland Center
10:12PM 42.3472 -80.8078 90° East 502 578 23,900 780 Climbing Cleveland Center
10:13PM 42.3461 -80.6231 90° East 492 566 24,700 600 Climbing Cleveland Center
10:14PM 42.3444 -80.4369 91° East 489 563 25,200 480 Climbing Cleveland Center
10:15PM 42.3419 -80.2492 91° East 494 568 25,700 480 Climbing Cleveland Center
10:16PM 42.3397 -80.0614 91° East 495 570 26,200 480 Climbing Cleveland Center
10:17PM 42.3364 -79.8656 91° East 489 563 26,800 360 Climbing Cleveland Center
10:18PM 42.3319 -79.6806 92° East 492 566 27,000 60 Climbing Cleveland Center
10:19PM 42.3286 -79.4925 91° East 502 578 27,000  Level Cleveland Center
10:20PM 42.3253 -79.2997 91° East 514 592 27,000  Level Cleveland Center
10:21PM 42.3208 -79.1083 92° East 513 590 27,000  Level Cleveland Center
10:22PM 42.3161 -78.8917 92° East 511 588 27,000  Level Cleveland Center
10:23PM 42.3111 -78.7022 92° East 509 586 27,000 -300 Level Cleveland Center
10:24PM 42.3067 -78.5125 92° East 509 586 26,500 -900 Descending Cleveland Center
10:25PM 42.3003 -78.3233 93° East 508 585 25,200 -1,380 Descending Cleveland Center
10:26PM 42.2956 -78.1369 92° East 504 580 23,700 -1,500 Descending Cleveland Center
10:28PM 42.2892 -77.9531 93° East 498 573 22,200 -1,620 Descending Cleveland Center
10:29PM 42.2808 -77.7336 93° East 494 568 20,400 -1,680 Descending Cleveland Center
10:30PM 42.2756 -77.5550 92° East 487 560 18,900 -1,380 Descending Cleveland Center
10:31PM 42.2683 -77.3828 93° East 471 542 17,600 -900 Descending Cleveland Center
10:32PM 42.2619 -77.2106 93° East 464 534 17,100 -300 Descending Cleveland Center
10:32PM 42.2564 -77.0661 93° East 468 539 17,100 -720 Level New York Center
10:33PM 42.2486 -76.8944 93° East 468 539 15,800 -1,860 Descending New York Center
10:34PM 42.2125 -76.7428 108° East 413 475 13,400 -2,280 Descending New York Center
10:35PM 42.1808 -76.6253 110° East 395 455 11,300 -2,100 Descending New York Center
10:36PM 42.1636 -76.5089 101° East 341 392 9,200 -1,800 Descending New York Center
10:37PM 42.1753 -76.3981 82° East 306 352 7,800 -1,500 Descending New York Center
10:38PM 42.2008 -76.2967 71° East 295 339 6,200 -1,380 Descending New York Center
10:39PM 42.2258 -76.2036 70° East 278 320 5,100 -1,020 Descending New York Center
10:40PM 42.2461 -76.1267 70° East 248 285 4,200 -900 Descending New York Center
10:41PM 42.2658 -76.0583 69° East 212 244 3,300 -960 Descending New York Center
10:42PM 42.2428 -76.0117 124° Southeast 139 160 2,300 -600 Descending New York Center
10:43PM 42.2342 -75.9689 105° East 139 160 2,100 -240 Descending New York Center